Pagina principale
METAR-TAF:

METAR-TAF

Aeroporti :

Kimberley, Sudafrica

latitudine: 28-48S, longitudine: 024-46E, altezza: 1198 m

Osservazione

Il bollettino è stato emesso 44 minuti fa, alle 13:00 UTC
Vento 4 kt da nord/nord-ovest
Temperature 28°C
Umidità 35%
Pressione 1014 hPa
Visibilità 10 km o più
Nuvoloso ad un'altezza di 4000 ft
Poco nuvoloso ad un'altezza di 5000 ft, Cumulonembo.
temporale, pioggia debole

METAR: FAKM 261300Z 33004KT 9999 -TSRA BKN040 FEW050CB 28/11 Q1014

Ora: 15:44 (13:44 UTC)

Previsione

Il bollettino è stato emesso 4 ore e 44 minuti fa, alle 09:00 UTC
Previsione valida dal 26 alle 10 UTC al 26 alle 18 UTC
Vento 10 kt da nord
Visibilità 10 km o più
nessuna nube inferiore a 1500 m e nessun cumulonembo
Probabilità 30% :
Temporaneamente
dal 26 alle 12 UTC al 26 alle 18 UTC
Poco nuvoloso ad un'altezza di 7000 ft, Cumulonembo.
temporale, pioggia debole

TAF: FAKM 260900Z 2610/2618 35010KT CAVOK TX35/2612Z TN25/2618Z PROB30 TEMPO 2612/2618 -TSRA FEW070CB

Osservazioni e previsioni meteorologiche di più di 4000 aeroporti (messaggi METAR e TAF).

Le stazioni disponibili sono rappresentate dai dischi gialli e rossi sulla carta.

Puntare il mouse per vedere il nome della stazione.

Clicca sopra per visualizzare le osservazioni e previsioni meteorologiche.

Per cambiare la mappa : fare clic sui pulsanti verdi con una croce nera per ingrandire, il pulsante verde con un trattino per diminuire, o sulla freccia verde per le mappe adiacenti.


METAR-TAF: